Elberta, UT

4:16 AM MDT on September 02, 2014 (GMT -0600)
Eagle Park | Change Station
CLOSE
Current Station
Personal Weather Station
Location: Eagle Mountain, UT
Elevation: 4324 ft
Nearby Weather Stations

Elev 4324 ft 40.18 °N, 112.00 °W | Updated 10 minutes ago

Clear
Clear
49.1 °F
Feels Like 49 °F
N
0.0
Wind Variable Wind from West

Today
High -- | Low -- °F
--% Chance of Precip.
Yesterday
High -- | Low -- °F
Precip. -- in
6:56 AM 7:58 PM
Waxing Crescent, 50% visible
Pressure 30.06 in
Visibility 10.0 miles
Clouds Clear
Windchill 49 °F
Dew Point 48 °F
Humidity 96%
Rainfall 0.00 in
Snow Depth Not available.
UV 0 out of 12
Pollen 8.00 out of 12
Air Quality Not available.
Flu Activity Not available.
METAR KPVU 020955Z AUTO 00000KT 10SM CLR 11/07 A3006 RMK AO1

More Conditions Fewer Conditions

Pressure 30.06 in
Visibility 10.0 miles
Clouds Clear
Windchill 49 °F
Dew Point 48 °F
Humidity 96%
Rainfall 0.00 in
Snow Depth Not available.
UV 0 out of 12
Pollen 8.00 out of 12
Air Quality Not available.
Flu Activity Not available.
METAR KPVU 020955Z AUTO 00000KT 10SM CLR 11/07 A3006 RMK AO1

More Conditions Fewer Conditions

10-Day Weather Forecast

Almanac

Astronomy

Sep. 02, 2014 Rise Set
Actual Time 6:56 AM MDT 7:58 PM MDT
Civil Twilight 6:28 AM MDT 8:25 PM MDT
Nautical Twilight 5:55 AM MDT 8:58 PM MDT
Astronomical Twilight 5:21 AM MDT 9:33 PM MDT
Moon 2:45 PM MDT 12:03 AM MDT
Length of Visible Light 13h 56m
Length of Day
13h 01m
Tomorrow will be 2m 33s shorter.
Waxing Crescent, 50% of the Moon is Illuminated
Today
Waxing Crescent
Sep 2
First Quarter
Sep 8
Full
Sep 15
Last Quarter
Sep 24
New

Today's Extremes

State Highs State Lows

Community

WunderPhotos

Upload Photos

1,749,611 photos uploaded!

WunderBlogs® & News

Nearby

Snow Depth

Station Depth Elevation
Cascade Mountain 0 in 7768 ft
Vernon Creek 0 in 7500 ft
Dry Fork 0 in 7160 ft
Mill-d North 0 in 8960 ft
Thaynes Canyon 0 in 9200 ft

Earthquake Activity

City Distance Mag. Time & Date
No recent earthquake activity has been reported nearby.
Minimum magnitude displayed is 2.5.

Coastal Water Temperatures

Place Temperature
No Stations Reporting

Nearby Weather Stations